Watrous, New Mexico
Current Conditions -  °F | °C
As of 5:53 PM on Friday 24 Oct 2014 (Local Time) from KLVS Reporting Station
Clear Clear  
Wind Chill: 71°   Ceiling: Unl
Heat Index: 71°   Visibility: 10mi
Dew Point: 20°   Wind: 8mph
Humidity: 14%   Direction: 170°S
Pressure: 30.26"   Gusts: NA
Location:  35.79°N, 104.98°W
Report Text: KLVS 242353Z AUTO 17007KT 10SM CLR 22/M07 A3026 RMK AO2 SLP171 T02171067 10261 20217 52001
Loading
Personal Weather Stations






























Interactive Weather Map
Tropical Storm Tracking
New forecast layout! Learn more

10-Day Weather Forecast

Advertisements
Track Severe Weather on mobile